Time;durP1;ratioP1;P1;durP2;ratioP2;P2;SDS_P1;SDS_P2;PMS_P1;PMS_P2;Temp;Humidity;BMP_temperature;BMP_pressure;BME280_temperature;BME280_humidity;BME280_pressure;Samples;Min_cycle;Max_cycle;Signal;HPM_P1;HPM_P2
2024/03/31 00:09:25;;;;;;;23.20;7.10;;;;;;;14.92;48.31;98202.36;447395;1236;139638;-63
2024/03/31 00:19:28;;;;;;;35.60;7.10;;;;;;;14.82;48.82;98205.96;444558;1239;5098357;-63
2024/03/31 00:29:32;;;;;;;33.20;8.40;;;;;;;14.76;49.25;98198.48;448659;1235;139702;-64
2024/03/31 00:39:35;;;;;;;26.60;8.20;;;;;;;14.72;49.65;98193.09;461839;1235;139326;-63
2024/03/31 00:49:39;;;;;;;30.90;6.70;;;;;;;14.68;49.92;98188.92;461938;1235;139095;-70
2024/03/31 00:59:42;;;;;;;22.80;5.10;;;;;;;14.63;50.23;98190.14;461854;1235;139138;-60
2024/03/31 01:09:45;;;;;;;18.20;5.50;;;;;;;14.62;50.56;98190.61;461842;1235;140005;-63
2024/03/31 01:19:48;;;;;;;29.80;6.50;;;;;;;14.57;50.90;98188.44;450196;1235;137589;-65
2024/03/31 01:29:52;;;;;;;20.30;5.70;;;;;;;14.47;51.35;98186.31;449670;1238;138863;-66
2024/03/31 01:39:58;;;;;;;24.20;4.50;;;;;;;14.35;51.95;98180.64;447284;1239;138585;-63
2024/03/31 01:50:01;;;;;;;21.20;6.20;;;;;;;14.24;52.65;98179.16;447435;1239;138525;-61
2024/03/31 02:00:08;;;;;;;23.90;5.00;;;;;;;14.12;53.20;98180.69;446856;1235;138600;-60
2024/03/31 02:10:11;;;;;;;23.60;6.20;;;;;;;14.01;53.71;98171.77;448524;1235;138595;-66
2024/03/31 02:20:17;;;;;;;23.60;6.20;;;;;;;13.93;54.33;98166.88;446800;1239;138546;-65
2024/03/31 02:30:21;;;;;;;15.40;4.10;;;;;;;13.86;54.92;98166.40;446937;1235;139532;-64
2024/03/31 02:40:24;;;;;;;14.90;5.10;;;;;;;13.77;55.33;98161.30;448583;1235;139077;-64
2024/03/31 02:50:28;;;;;;;21.70;4.80;;;;;;;13.70;55.61;98156.89;447518;1239;138536;-64
2024/03/31 03:00:31;;;;;;;22.60;5.30;;;;;;;13.59;55.88;98146.56;446731;1239;138540;-64
2024/03/31 03:10:35;;;;;;;17.10;4.40;;;;;;;13.44;56.35;98137.27;447487;1239;139181;-58
2024/03/31 03:20:38;;;;;;;22.10;5.30;;;;;;;13.33;56.74;98122.56;447176;1239;138845;-58
2024/03/31 03:30:42;;;;;;;20.80;5.00;;;;;;;13.29;57.03;98125.34;446727;1239;138640;-58
2024/03/31 03:40:45;;;;;;;18.90;5.50;;;;;;;13.19;57.47;98136.19;447178;1239;139805;-57
2024/03/31 03:50:49;;;;;;;23.40;4.70;;;;;;;13.01;58.09;98129.34;447600;1239;140342;-56
2024/03/31 04:00:57;;;;;;;18.90;4.90;;;;;;;12.85;58.66;98115.08;447621;1235;139141;-56
2024/03/31 04:11:00;;;;;;;18.30;5.00;;;;;;;12.72;59.32;98115.77;446642;1239;138734;-65
2024/03/31 04:21:07;;;;;;;19.40;5.00;;;;;;;12.58;59.89;98113.20;446585;1239;139073;-65
2024/03/31 04:31:10;;;;;;;25.50;5.40;;;;;;;12.53;60.45;98110.42;447168;1239;140738;-57
2024/03/31 04:41:16;;;;;;;22.30;4.90;;;;;;;12.53;61.11;98114.25;446539;1236;139045;-56
2024/03/31 04:51:19;;;;;;;17.60;5.20;;;;;;;12.62;61.43;98115.31;446960;1239;139456;-64
2024/03/31 05:01:25;;;;;;;12.50;3.60;;;;;;;12.76;61.62;98115.41;446816;1235;138666;-65
2024/03/31 05:11:28;;;;;;;13.70;3.50;;;;;;;12.97;61.76;98111.11;448006;1239;138610;-64
2024/03/31 05:21:34;;;;;;;16.00;5.10;;;;;;;13.19;61.70;98110.91;447199;1236;138951;-64
2024/03/31 05:31:38;;;;;;;12.20;3.40;;;;;;;13.32;61.55;98106.62;446924;1239;139067;-63
2024/03/31 05:41:41;;;;;;;13.40;4.00;;;;;;;13.39;61.68;98103.33;447061;1237;139065;-63
2024/03/31 05:51:45;;;;;;;13.50;3.70;;;;;;;13.49;61.68;98104.69;446648;1235;138670;-64
2024/03/31 06:01:49;;;;;;;9.90;3.80;;;;;;;13.62;61.62;98104.07;447230;1239;138474;-65
2024/03/31 06:11:53;;;;;;;17.00;4.30;;;;;;;13.79;61.52;98100.40;448169;1235;138451;-66
2024/03/31 06:21:56;;;;;;;14.50;4.40;;;;;;;14.06;61.46;98097.85;447731;1239;138886;-58
2024/03/31 06:32:00;;;;;;;16.30;3.40;;;;;;;14.63;61.36;98090.95;448474;1235;138824;-57
2024/03/31 06:42:04;;;;;;;13.90;4.30;;;;;;;15.84;60.49;98088.34;447476;1236;139246;-61
2024/03/31 06:52:08;;;;;;;16.20;4.20;;;;;;;18.31;59.08;98084.21;447266;1235;139024;-61
2024/03/31 07:02:12;;;;;;;9.10;2.90;;;;;;;22.12;54.72;98077.48;447946;1239;138561;-68
2024/03/31 07:12:15;;;;;;;12.00;3.40;;;;;;;25.05;49.11;98066.89;447859;1239;138467;-64
2024/03/31 07:22:18;;;;;;;9.90;3.20;;;;;;;27.89;43.72;98064.54;447975;1236;139430;-62
2024/03/31 07:32:21;;;;;;;9.10;3.20;;;;;;;30.55;39.52;98062.16;448506;1236;138934;-64
2024/03/31 07:42:25;;;;;;;10.10;3.40;;;;;;;30.76;35.10;98054.36;447538;1239;138430;-65
2024/03/31 07:52:29;;;;;;;10.50;2.80;;;;;;;27.45;35.01;98061.31;447771;1239;138991;-65
2024/03/31 08:02:32;;;;;;;7.40;2.60;;;;;;;25.09;36.77;98067.77;448316;1239;138751;-60
2024/03/31 08:12:37;;;;;;;12.00;3.60;;;;;;;24.53;37.99;98061.97;448455;1239;138316;-61
2024/03/31 08:22:41;;;;;;;14.80;3.70;;;;;;;26.08;38.09;98053.31;448573;1235;138492;-61
2024/03/31 08:32:46;;;;;;;7.30;2.80;;;;;;;29.07;36.19;98040.33;447321;1235;138482;-61
2024/03/31 08:43:02;;;;;;;9.60;3.20;;;;;;;30.44;34.41;98026.66;447021;1239;138647;-61
2024/03/31 08:53:08;;;;;;;13.60;3.60;;;;;;;30.65;32.78;98004.99;447364;1235;138787;-61
2024/03/31 09:03:10;;;;;;;;;;;;;;;30.34;31.71;97992.97;448394;1239;139097;-60
2024/03/31 09:13:14;;;;;;;14.20;3.20;;;;;;;29.99;30.78;97977.42;448131;1239;124970;-63
2024/03/31 09:23:20;;;;;;;12.10;4.10;;;;;;;29.37;29.91;97969.27;448855;1239;139531;-64
2024/03/31 09:33:25;;;;;;;10.30;3.10;;;;;;;28.68;29.42;97961.52;447766;1235;139196;-61
2024/03/31 09:43:29;;;;;;;11.20;3.00;;;;;;;28.28;29.40;97975.61;447884;1236;138841;-61
2024/03/31 09:53:36;;;;;;;11.70;3.40;;;;;;;27.83;29.59;97986.54;448010;1237;139787;-61
2024/03/31 10:03:42;;;;;;;10.40;3.10;;;;;;;27.51;29.76;97975.45;447988;1239;138779;-60
2024/03/31 10:13:50;;;;;;;11.70;3.70;;;;;;;27.07;30.04;97964.83;447494;1235;139901;-63
2024/03/31 10:23:55;;;;;;;13.60;4.70;;;;;;;26.88;30.23;97951.44;447774;1239;139015;-64
2024/03/31 10:34:01;;;;;;;19.10;3.80;;;;;;;26.38;30.23;97945.05;448522;1239;139117;-62
2024/03/31 10:44:06;;;;;;;15.40;4.50;;;;;;;25.88;31.21;97946.10;448339;1236;138690;-61
2024/03/31 10:54:27;;;;;;;;;;;;;;;25.95;31.29;97943.27;447850;1239;139688;-64
2024/03/31 11:04:30;;;;;;;23.40;5.40;;;;;;;25.90;31.05;97936.63;447948;1239;125275;-60
2024/03/31 11:14:34;;;;;;;18.50;4.80;;;;;;;25.70;30.85;97927.27;448518;1239;138842;-61
2024/03/31 11:24:39;;;;;;;27.60;7.10;;;;;;;25.92;31.13;97916.91;448791;1239;139466;-61
2024/03/31 11:34:46;;;;;;;23.90;8.00;;;;;;;26.24;30.60;97902.09;448294;1239;138959;-62
2024/03/31 11:44:48;;;;;;;;;;;;;;;25.90;30.30;97885.34;447888;1236;138648;-65
2024/03/31 11:54:53;;;;;;;30.50;6.30;;;;;;;25.51;30.42;97871.41;447751;1236;124835;-65
2024/03/31 12:05:01;;;;;;;32.20;7.20;;;;;;;25.52;30.39;97855.59;448155;1239;139170;-65
2024/03/31 12:15:09;;;;;;;37.90;10.20;;;;;;;25.35;30.29;97854.58;443799;1235;5090523;-65
2024/03/31 12:25:14;;;;;;;39.20;8.20;;;;;;;25.18;30.09;97844.29;448221;1239;138925;-66
2024/03/31 12:35:18;;;;;;;35.60;7.70;;;;;;;25.04;29.89;97848.19;447452;1237;139859;-65
2024/03/31 12:45:22;;;;;;;34.30;9.10;;;;;;;24.93;29.99;97839.05;448032;1239;138924;-64
2024/03/31 12:55:28;;;;;;;27.40;7.40;;;;;;;24.88;30.41;97843.40;448003;1239;138639;-64
2024/03/31 13:05:31;;;;;;;44.20;7.80;;;;;;;24.72;30.55;97843.45;447637;1236;138883;-64
2024/03/31 13:15:38;;;;;;;40.60;7.20;;;;;;;24.53;30.63;97844.88;447403;1236;139508;-64
2024/03/31 13:25:41;;;;;;;32.90;8.80;;;;;;;24.31;30.90;97854.02;447803;1239;139591;-62
2024/03/31 13:35:47;;;;;;;43.60;10.90;;;;;;;24.11;31.35;97854.67;447762;1239;138795;-62
2024/03/31 13:45:51;;;;;;;51.20;9.90;;;;;;;24.03;31.39;97858.45;448216;1239;139204;-61
2024/03/31 13:55:54;;;;;;;41.30;8.90;;;;;;;23.80;31.27;97875.69;448332;1239;139216;-61
2024/03/31 14:06:00;;;;;;;38.80;8.70;;;;;;;23.49;31.35;97867.90;448099;1239;139340;-62
2024/03/31 14:16:06;;;;;;;31.30;8.40;;;;;;;23.33;31.67;97862.63;447899;1239;138754;-65
2024/03/31 14:26:10;;;;;;;34.90;8.90;;;;;;;23.11;32.03;97868.59;447760;1239;138508;-65
2024/03/31 14:36:13;;;;;;;34.70;7.80;;;;;;;22.84;32.57;97869.02;447675;1239;138524;-64
2024/03/31 14:46:19;;;;;;;34.60;8.60;;;;;;;22.27;33.03;97864.50;447083;1239;139059;-65
2024/03/31 14:56:22;;;;;;;37.90;9.10;;;;;;;21.98;33.65;97862.83;447715;1239;139165;-69
2024/03/31 15:06:28;;;;;;;38.20;9.30;;;;;;;21.90;33.77;97870.61;447835;1239;139057;-68
2024/03/31 15:16:31;;;;;;;42.80;10.50;;;;;;;21.94;34.02;97873.37;447598;1239;138933;-68
2024/03/31 15:26:35;;;;;;;33.40;7.40;;;;;;;21.87;34.07;97871.00;447791;1239;139665;-68
2024/03/31 15:36:38;;;;;;;30.30;8.10;;;;;;;21.56;34.46;97864.54;448327;1236;138608;-60
2024/03/31 15:46:43;;;;;;;31.60;6.50;;;;;;;21.18;34.95;97866.27;447550;1239;138598;-61
2024/03/31 15:56:49;;;;;;;32.70;7.80;;;;;;;20.95;35.61;97859.06;447700;1239;139296;-60
2024/03/31 16:07:02;;;;;;;40.70;8.80;;;;;;;20.76;36.17;97861.08;447479;1239;138919;-60
2024/03/31 16:17:08;;;;;;;35.40;6.20;;;;;;;20.51;36.69;97867.04;447975;1239;139161;-61
2024/03/31 16:27:11;;;;;;;27.20;7.30;;;;;;;20.22;37.21;97873.98;447422;1239;138694;-60
2024/03/31 16:37:14;;;;;;;37.00;7.80;;;;;;;19.95;37.86;97873.19;447728;1239;138496;-62
2024/03/31 16:47:22;;;;;;;31.20;6.80;;;;;;;19.67;38.31;97875.98;447677;1239;139260;-61
2024/03/31 16:57:25;;;;;;;35.90;8.00;;;;;;;19.35;38.81;97873.58;447628;1239;138719;-63
2024/03/31 17:07:29;;;;;;;29.80;8.10;;;;;;;19.05;39.25;97868.49;447983;1239;139050;-62
2024/03/31 17:17:32;;;;;;;27.60;7.40;;;;;;;18.78;39.71;97862.15;448366;1239;138964;-62
2024/03/31 17:27:35;;;;;;;21.10;7.10;;;;;;;18.56;39.99;97856.02;447552;1239;139086;-64
2024/03/31 17:37:41;;;;;;;28.50;6.10;;;;;;;18.37;40.37;97861.95;447215;1239;138504;-65
2024/03/31 17:47:44;;;;;;;31.60;7.20;;;;;;;18.19;40.87;97875.28;447250;1235;139252;-62
2024/03/31 17:57:49;;;;;;;27.90;8.80;;;;;;;18.03;41.26;97884.60;447137;1239;138804;-61
2024/03/31 18:07:55;;;;;;;30.20;8.00;;;;;;;17.85;41.62;97888.19;447620;1240;138726;-60
2024/03/31 18:17:58;;;;;;;33.60;9.40;;;;;;;17.68;42.10;97891.14;448639;1239;138604;-60
2024/03/31 18:28:04;;;;;;;28.10;8.10;;;;;;;17.51;42.45;97890.85;447281;1239;139373;-63
2024/03/31 18:38:08;;;;;;;37.00;7.80;;;;;;;17.30;42.91;97886.10;447481;1240;138963;-62
2024/03/31 18:48:12;;;;;;;34.00;7.40;;;;;;;17.05;43.56;97895.50;447319;1239;138605;-60
2024/03/31 18:58:15;;;;;;;35.30;9.50;;;;;;;16.80;44.31;97903.18;447096;1239;138616;-60
2024/03/31 19:08:21;;;;;;;30.90;7.20;;;;;;;16.59;44.68;97905.98;447325;1238;139129;-65
2024/03/31 19:18:26;;;;;;;30.90;7.90;;;;;;;16.51;44.84;97907.45;446836;1241;139656;-65
2024/03/31 19:28:30;;;;;;;22.10;6.80;;;;;;;16.45;44.96;97911.46;447099;1235;139141;-65
2024/03/31 19:38:34;;;;;;;41.40;10.10;;;;;;;16.35;45.27;97909.98;447277;1235;139613;-65
2024/03/31 19:48:37;;;;;;;31.60;7.50;;;;;;;16.22;45.78;97914.08;447101;1240;139080;-69
2024/03/31 19:58:43;;;;;;;38.30;9.50;;;;;;;16.06;46.05;97916.40;446937;1239;139716;-68
2024/03/31 20:08:47;;;;;;;41.80;10.40;;;;;;;16.01;46.18;97920.30;447225;1239;138805;-62
2024/03/31 20:18:52;;;;;;;41.10;9.10;;;;;;;15.97;46.21;97918.80;447075;1239;139435;-60
2024/03/31 20:28:56;;;;;;;41.70;9.60;;;;;;;15.91;46.35;97920.02;448171;1235;138777;-60
2024/03/31 20:38:59;;;;;;;32.10;7.10;;;;;;;15.82;46.49;97925.10;448276;1240;138678;-60
2024/03/31 20:49:02;;;;;;;40.00;10.10;;;;;;;15.74;46.69;97923.28;447016;1239;138939;-68
2024/03/31 20:59:11;;;;;;;36.30;8.70;;;;;;;15.71;46.74;97913.58;447370;1235;139413;-61
2024/03/31 21:09:19;;;;;;;33.20;9.50;;;;;;;15.74;46.82;97904.79;447029;1238;138651;-62
2024/03/31 21:19:23;;;;;;;35.50;9.70;;;;;;;15.73;46.91;97907.58;447311;1235;139289;-61
2024/03/31 21:29:26;;;;;;;41.30;10.40;;;;;;;15.67;46.89;97909.89;446656;1235;139011;-62
2024/03/31 21:39:30;;;;;;;34.70;9.00;;;;;;;15.59;46.98;97908.08;447063;1235;138791;-62
2024/03/31 21:49:35;;;;;;;38.00;9.20;;;;;;;15.45;47.12;97910.45;446949;1239;139065;-62
2024/03/31 21:59:48;;;;;;;38.50;9.30;;;;;;;15.29;47.35;97909.23;447378;1240;139191;-60
2024/03/31 22:09:51;;;;;;;35.10;8.20;;;;;;;15.15;47.59;97906.53;446972;1235;139362;-59
2024/03/31 22:19:54;;;;;;;25.10;7.00;;;;;;;15.05;47.86;97900.41;447067;1240;138667;-65
2024/03/31 22:29:57;;;;;;;34.10;8.00;;;;;;;14.93;48.18;97902.55;447691;1239;138807;-65
2024/03/31 22:40:01;;;;;;;27.10;8.20;;;;;;;14.82;48.45;97900.27;446972;1240;139126;-60
2024/03/31 22:50:07;;;;;;;27.30;6.90;;;;;;;14.72;48.64;97890.69;446703;1241;139379;-60
2024/03/31 23:00:13;;;;;;;32.60;7.50;;;;;;;14.60;48.99;97888.59;446986;1235;138733;-69
2024/03/31 23:10:18;;;;;;;37.10;8.30;;;;;;;14.42;49.19;97888.60;446569;1235;138917;-67
2024/03/31 23:20:22;;;;;;;30.20;7.90;;;;;;;14.21;49.68;97894.69;446957;1239;138454;-61
2024/03/31 23:30:25;;;;;;;27.50;7.40;;;;;;;14.08;50.02;97882.14;446577;1239;139372;-61
2024/03/31 23:40:29;;;;;;;30.00;8.40;;;;;;;13.95;50.24;97878.73;447078;1239;138515;-61
2024/03/31 23:50:35;;;;;;;35.60;9.50;;;;;;;13.81;50.55;97875.85;447563;1239;138474;-61
